createdAt,value
2018-03-21T00:01:38.960Z,38.46
2018-03-21T00:04:04.904Z,38.38
2018-03-21T00:06:30.915Z,38.35
2018-03-21T00:08:56.892Z,38.25
2018-03-21T00:11:22.878Z,38.48
2018-03-21T00:13:48.843Z,38.44
2018-03-21T00:16:14.848Z,38.26
2018-03-21T00:18:40.825Z,38.39
2018-03-21T00:21:06.797Z,38.31
2018-03-21T00:23:32.784Z,38.29
2018-03-21T00:25:58.756Z,38.27
2018-03-21T00:28:24.771Z,38.29
2018-03-21T00:30:50.744Z,38.36
2018-03-21T00:33:16.718Z,38.28
2018-03-21T00:35:42.732Z,38.19
2018-03-21T00:38:08.718Z,38.16
2018-03-21T00:40:34.693Z,38.13
2018-03-21T00:43:00.673Z,38.22
2018-03-21T00:45:26.652Z,38.26
2018-03-21T00:47:52.624Z,38.13
2018-03-21T00:50:18.598Z,38.22
2018-03-21T00:52:44.572Z,38.30
2018-03-21T00:55:10.585Z,38.05
2018-03-21T00:57:36.529Z,38.19
2018-03-21T01:00:02.515Z,38.26
2018-03-21T01:02:28.483Z,38.16
2018-03-21T01:04:54.463Z,38.28
2018-03-21T01:07:20.481Z,38.09
2018-03-21T01:09:46.418Z,38.11
2018-03-21T01:12:12.398Z,38.16
2018-03-21T01:14:38.371Z,38.06
2018-03-21T01:17:04.350Z,38.25
2018-03-21T01:19:30.332Z,38.21
2018-03-21T01:21:56.308Z,38.09
2018-03-21T01:24:22.292Z,38.18
2018-03-21T01:26:48.334Z,38.01
2018-03-21T01:29:14.265Z,38.04
2018-03-21T01:31:40.245Z,38.01
2018-03-21T01:34:06.226Z,37.99
2018-03-21T01:36:32.198Z,38.04
2018-03-21T01:38:58.212Z,38.02
2018-03-21T01:41:24.184Z,38.04
2018-03-21T01:43:50.156Z,38.10
2018-03-21T01:46:16.159Z,38.14
2018-03-21T01:48:42.103Z,38.02
2018-03-21T01:51:08.079Z,37.99
2018-03-21T01:53:34.119Z,38.08
2018-03-21T01:56:00.092Z,37.99
2018-03-21T01:58:26.063Z,38.02
2018-03-21T02:00:52.041Z,38.03
2018-03-21T02:03:18.019Z,37.98
2018-03-21T02:05:44.020Z,37.88
2018-03-21T02:08:09.970Z,38.00
2018-03-21T02:10:35.975Z,37.97
2018-03-21T02:13:01.952Z,38.09
2018-03-21T02:15:27.895Z,37.92
2018-03-21T02:17:53.904Z,38.04
2018-03-21T02:20:19.841Z,37.92
2018-03-21T02:22:45.821Z,37.97
2018-03-21T02:25:11.805Z,37.91
2018-03-21T02:27:37.818Z,38.03
2018-03-21T02:30:03.798Z,37.95
2018-03-21T02:32:29.786Z,37.87
2018-03-21T02:34:55.806Z,38.01
2018-03-21T02:37:21.779Z,37.96
2018-03-21T02:39:47.732Z,37.92
2018-03-21T02:42:13.740Z,37.86
2018-03-21T02:44:39.681Z,37.91
2018-03-21T02:47:05.688Z,37.82
2018-03-21T02:49:31.687Z,37.91
2018-03-21T02:51:57.626Z,37.84
2018-03-21T02:54:23.640Z,37.85
2018-03-21T02:56:49.614Z,37.91
2018-03-21T02:59:15.561Z,37.84
2018-03-21T03:01:41.565Z,37.87
2018-03-21T03:04:07.530Z,37.89
2018-03-21T03:06:33.558Z,37.78
2018-03-21T03:08:59.531Z,37.90
2018-03-21T03:11:25.536Z,37.81
2018-03-21T03:13:51.484Z,37.77
2018-03-21T03:16:17.501Z,37.78
2018-03-21T03:18:43.454Z,37.88
2018-03-21T03:21:09.428Z,37.88
2018-03-21T03:23:35.409Z,37.76
2018-03-21T03:26:01.390Z,37.71
2018-03-21T03:28:27.360Z,37.84
2018-03-21T03:30:53.339Z,37.85
2018-03-21T03:33:19.362Z,37.85
2018-03-21T03:35:45.292Z,37.72
2018-03-21T03:38:11.269Z,37.69
2018-03-21T03:40:37.295Z,37.78
2018-03-21T03:43:03.278Z,37.79
2018-03-21T03:45:29.249Z,37.83
2018-03-21T03:47:55.270Z,37.70
2018-03-21T03:50:21.212Z,37.74
2018-03-21T03:52:47.211Z,37.70
2018-03-21T03:55:13.155Z,37.68
2018-03-21T03:57:39.159Z,37.77
2018-03-21T04:00:05.136Z,37.69
2018-03-21T04:02:31.149Z,37.65
2018-03-21T04:04:57.121Z,37.68
2018-03-21T04:07:23.063Z,37.76
2018-03-21T04:09:49.042Z,37.74
2018-03-21T04:12:15.020Z,37.69
2018-03-21T04:14:41.000Z,37.66
2018-03-21T04:17:06.966Z,37.68
2018-03-21T04:19:32.948Z,37.63
2018-03-21T04:21:58.924Z,37.68
2018-03-21T04:24:24.929Z,37.60
2018-03-21T04:26:50.862Z,37.61
2018-03-21T04:29:16.869Z,37.70
2018-03-21T04:31:42.877Z,37.63
2018-03-21T04:34:08.823Z,37.64
2018-03-21T04:36:34.868Z,37.62
2018-03-21T04:39:00.872Z,37.60
2018-03-21T04:41:26.850Z,37.58
2018-03-21T04:43:52.796Z,37.51
2018-03-21T04:46:18.806Z,37.62
2018-03-21T04:48:44.757Z,37.61
2018-03-21T04:51:10.768Z,37.74
2018-03-21T04:53:36.716Z,37.79
2018-03-21T04:56:02.694Z,37.88
2018-03-21T04:58:28.668Z,37.82
2018-03-21T05:00:54.737Z,37.85
2018-03-21T05:03:20.680Z,37.84
2018-03-21T05:05:46.660Z,38.03
2018-03-21T05:08:12.638Z,38.25
2018-03-21T05:10:38.611Z,38.71
2018-03-21T05:13:04.595Z,39.83
2018-03-21T05:15:30.568Z,40.00
2018-03-21T05:17:56.547Z,39.91
2018-03-21T05:20:22.565Z,39.59
2018-03-21T05:22:48.505Z,39.60
2018-03-21T05:25:14.523Z,39.56
2018-03-21T05:27:40.506Z,39.59
2018-03-21T05:30:06.446Z,39.56
2018-03-21T05:32:32.432Z,39.50
2018-03-21T05:34:58.439Z,39.27
2018-03-21T05:37:24.422Z,39.42
2018-03-21T05:39:50.427Z,39.34
2018-03-21T05:42:16.386Z,39.46
2018-03-21T05:44:42.392Z,38.95
2018-03-21T05:47:08.371Z,39.27
2018-03-21T05:49:34.323Z,39.45
2018-03-21T05:52:00.326Z,39.44
2018-03-21T05:54:26.307Z,39.88
2018-03-21T05:56:52.317Z,39.77
2018-03-21T05:59:18.306Z,40.52
2018-03-21T06:01:44.285Z,40.43
2018-03-21T06:04:10.236Z,40.63
2018-03-21T06:06:36.252Z,40.27
2018-03-21T06:09:02.197Z,40.64
2018-03-21T06:11:28.208Z,40.58
2018-03-21T06:13:54.157Z,40.50
2018-03-21T06:16:20.157Z,40.30
2018-03-21T06:18:46.169Z,40.26
2018-03-21T06:21:12.120Z,40.18
2018-03-21T06:23:38.087Z,40.16
2018-03-21T06:26:04.060Z,39.94
2018-03-21T06:28:30.034Z,39.72
2018-03-21T06:30:56.044Z,39.92
2018-03-21T06:33:22.056Z,39.94
2018-03-21T06:35:48.063Z,39.85
2018-03-21T06:38:14.035Z,39.81
2018-03-21T06:40:40.009Z,39.78
2018-03-21T06:43:09.005Z,39.68
2018-03-21T06:45:34.975Z,39.59
2018-03-21T06:48:01.000Z,39.68
2018-03-21T06:50:26.982Z,39.66
2018-03-21T06:52:52.929Z,39.30
2018-03-21T06:55:18.906Z,39.20
2018-03-21T06:57:44.939Z,39.64
2018-03-21T07:00:10.981Z,40.18
2018-03-21T07:02:36.962Z,39.79
2018-03-21T07:05:02.978Z,39.19
2018-03-21T07:07:28.974Z,39.29
2018-03-21T07:09:54.933Z,39.83
2018-03-21T07:12:20.930Z,40.14
2018-03-21T07:14:46.992Z,40.04
2018-03-21T07:17:12.955Z,39.66
2018-03-21T07:19:38.952Z,39.59
2018-03-21T07:22:04.973Z,39.48
2018-03-21T07:24:30.936Z,39.34
2018-03-21T07:26:57.004Z,39.64
2018-03-21T07:29:22.966Z,39.82
2018-03-21T07:31:48.968Z,39.73
2018-03-21T07:34:14.976Z,39.66
2018-03-21T07:36:40.992Z,39.83
2018-03-21T07:39:07.033Z,40.06
2018-03-21T07:41:33.000Z,39.63
2018-03-21T07:43:58.957Z,40.06
2018-03-21T07:46:24.983Z,39.69
2018-03-21T07:48:50.941Z,39.94
2018-03-21T07:51:16.947Z,39.75
2018-03-21T07:53:42.952Z,39.69
2018-03-21T07:56:08.937Z,39.56
2018-03-21T07:58:34.922Z,39.86
2018-03-21T08:01:01.352Z,39.91
2018-03-21T08:03:27.342Z,39.40
2018-03-21T08:05:53.332Z,39.28
2018-03-21T08:08:19.359Z,39.27
2018-03-21T08:10:45.286Z,39.56
2018-03-21T08:13:11.310Z,39.69
2018-03-21T08:15:37.270Z,39.65
2018-03-21T08:18:03.302Z,39.76
2018-03-21T08:20:29.259Z,40.36
2018-03-21T08:22:55.314Z,40.20
2018-03-21T08:25:21.328Z,40.46
2018-03-21T08:27:47.394Z,40.20
2018-03-21T08:30:13.324Z,41.53
2018-03-21T08:32:39.318Z,40.58
2018-03-21T08:35:05.347Z,40.79
2018-03-21T08:37:31.352Z,40.68
2018-03-21T08:39:57.379Z,40.26
2018-03-21T08:42:23.430Z,41.04
2018-03-21T08:44:49.408Z,40.98
2018-03-21T08:47:15.431Z,41.47
2018-03-21T08:49:41.453Z,40.83
2018-03-21T08:52:07.389Z,41.36
2018-03-21T08:54:33.387Z,41.99
2018-03-21T08:56:59.401Z,41.71
2018-03-21T08:59:25.390Z,41.36
2018-03-21T09:01:51.383Z,41.53
2018-03-21T09:04:17.371Z,41.55
2018-03-21T09:06:43.415Z,40.75
2018-03-21T09:09:09.401Z,41.46
2018-03-21T09:11:35.427Z,41.29
2018-03-21T09:14:01.389Z,41.11
2018-03-21T09:16:27.379Z,41.30
2018-03-21T09:18:53.375Z,41.78
2018-03-21T09:21:19.369Z,41.66
2018-03-21T09:23:45.352Z,41.45
2018-03-21T09:26:11.397Z,40.76
2018-03-21T09:28:37.389Z,40.91
2018-03-21T09:31:03.381Z,40.88
2018-03-21T09:33:29.373Z,40.55
2018-03-21T09:35:55.362Z,40.28
2018-03-21T09:38:21.358Z,40.19
2018-03-21T09:40:47.377Z,40.30
2018-03-21T09:43:15.968Z,40.15
2018-03-21T09:45:41.962Z,40.13
2018-03-21T09:48:07.950Z,39.95
2018-03-21T09:50:33.969Z,39.82
2018-03-21T09:52:59.953Z,39.52
2018-03-21T09:55:25.994Z,39.58
2018-03-21T09:57:51.988Z,39.47
2018-03-21T10:00:17.972Z,39.38
2018-03-21T10:02:44.003Z,39.36
2018-03-21T10:05:09.961Z,39.75
2018-03-21T10:07:35.958Z,39.61
2018-03-21T10:10:02.001Z,39.11
2018-03-21T10:12:27.980Z,39.41
2018-03-21T10:14:54.001Z,39.41
2018-03-21T10:17:19.986Z,39.42
2018-03-21T10:19:45.945Z,39.37
2018-03-21T10:22:11.929Z,39.35
2018-03-21T10:24:37.931Z,39.38
2018-03-21T10:27:03.908Z,39.35
2018-03-21T10:29:29.923Z,39.37
2018-03-21T10:31:55.929Z,39.37
2018-03-21T10:34:21.912Z,39.38
2018-03-21T10:36:47.906Z,39.40
2018-03-21T10:39:13.898Z,39.39
2018-03-21T10:41:39.889Z,39.42
2018-03-21T10:44:05.890Z,39.29
2018-03-21T10:46:31.914Z,39.42
2018-03-21T10:48:57.897Z,39.42
2018-03-21T10:51:23.902Z,39.42
2018-03-21T10:53:49.918Z,39.39
2018-03-21T10:56:15.910Z,39.40
2018-03-21T10:58:41.900Z,39.47
2018-03-21T11:01:07.887Z,39.38
2018-03-21T11:03:33.911Z,39.37
2018-03-21T11:05:59.866Z,39.35
2018-03-21T11:08:25.857Z,39.37
2018-03-21T11:10:51.873Z,39.31
2018-03-21T11:13:17.874Z,39.25
2018-03-21T11:15:43.892Z,39.28
2018-03-21T11:18:09.877Z,39.28
2018-03-21T11:20:35.946Z,39.26
2018-03-21T11:23:01.943Z,39.22
2018-03-21T11:25:27.931Z,39.21
2018-03-21T11:27:53.948Z,39.27
2018-03-21T11:30:19.976Z,39.30
2018-03-21T11:32:45.970Z,39.30
2018-03-21T11:35:11.956Z,39.29
2018-03-21T11:37:37.994Z,39.28
2018-03-21T11:40:03.946Z,39.26
2018-03-21T11:42:29.933Z,39.26
2018-03-21T11:44:55.923Z,39.26
2018-03-21T11:47:21.933Z,39.26
2018-03-21T11:49:47.926Z,39.25
2018-03-21T11:52:13.952Z,39.23
2018-03-21T11:54:39.948Z,39.23
2018-03-21T11:57:05.936Z,39.22
2018-03-21T11:59:31.954Z,39.18
2018-03-21T12:01:57.944Z,39.16
2018-03-21T12:04:23.948Z,39.13
2018-03-21T12:06:49.966Z,39.09
2018-03-21T12:09:15.986Z,39.07
2018-03-21T12:11:41.978Z,39.10
2018-03-21T12:14:07.980Z,39.08
2018-03-21T12:16:33.953Z,39.02
2018-03-21T12:19:00.033Z,39.00
2018-03-21T12:21:26.031Z,38.97
2018-03-21T12:23:52.070Z,38.98
2018-03-21T12:26:18.037Z,39.03
2018-03-21T12:28:44.029Z,39.00
2018-03-21T12:31:10.054Z,38.81
2018-03-21T12:33:36.043Z,38.99
2018-03-21T12:36:02.044Z,38.98
2018-03-21T12:38:28.043Z,38.79
2018-03-21T12:40:54.069Z,38.91
2018-03-21T12:43:20.084Z,38.64
2018-03-21T12:45:46.167Z,38.80
2018-03-21T12:48:12.188Z,38.58
2018-03-21T12:50:38.214Z,38.66
2018-03-21T12:53:04.234Z,38.62
2018-03-21T12:55:30.517Z,38.66
2018-03-21T12:57:56.469Z,38.56
2018-03-21T13:00:22.497Z,38.44
2018-03-21T13:02:48.475Z,38.76
2018-03-21T13:05:14.467Z,38.65
2018-03-21T13:07:40.542Z,38.65
2018-03-21T13:10:06.565Z,38.77
2018-03-21T13:12:32.533Z,38.61
2018-03-21T13:14:58.580Z,38.55
2018-03-21T13:17:24.551Z,38.54
2018-03-21T13:19:50.576Z,38.49
2018-03-21T13:22:16.525Z,38.50
2018-03-21T13:24:42.552Z,38.34
2018-03-21T13:27:08.593Z,38.30
2018-03-21T13:29:34.613Z,38.18
2018-03-21T13:32:00.638Z,38.18
2018-03-21T13:34:26.714Z,38.11
2018-03-21T13:36:52.710Z,38.05
2018-03-21T13:39:18.918Z,38.03
2018-03-21T13:41:44.909Z,38.01
2018-03-21T13:44:10.893Z,37.90
2018-03-21T13:46:36.907Z,37.88
2018-03-21T13:49:02.908Z,37.73
2018-03-21T13:51:28.925Z,37.70
2018-03-21T13:53:54.890Z,37.46
2018-03-21T13:56:20.912Z,37.45
2018-03-21T13:58:46.991Z,37.41
2018-03-21T14:01:12.884Z,37.44
2018-03-21T14:03:38.879Z,37.44
2018-03-21T14:06:04.929Z,37.64
2018-03-21T14:08:30.886Z,37.48
2018-03-21T14:10:56.929Z,37.96
2018-03-21T14:13:22.880Z,38.01
2018-03-21T14:15:48.862Z,37.94
2018-03-21T14:18:14.897Z,37.95
2018-03-21T14:20:40.883Z,37.91
2018-03-21T14:23:06.958Z,37.84
2018-03-21T14:25:32.946Z,37.75
2018-03-21T14:27:58.944Z,37.70
2018-03-21T14:30:24.904Z,37.64
2018-03-21T14:32:50.892Z,37.58
2018-03-21T14:35:16.914Z,37.54
2018-03-21T14:37:42.881Z,37.45
2018-03-21T14:40:08.876Z,37.40
2018-03-21T14:42:34.872Z,37.29
2018-03-21T14:45:00.857Z,37.24
2018-03-21T14:47:26.850Z,37.17
2018-03-21T14:49:52.836Z,37.13
2018-03-21T14:52:18.863Z,37.08
2018-03-21T14:54:44.820Z,36.99
2018-03-21T14:57:10.897Z,36.96
2018-03-21T14:59:36.890Z,36.92
2018-03-21T15:02:02.885Z,36.84
2018-03-21T15:04:28.874Z,36.73
2018-03-21T15:06:55.001Z,36.64
2018-03-21T15:09:21.018Z,36.59
2018-03-21T15:11:47.016Z,36.73
2018-03-21T15:14:13.017Z,36.53
2018-03-21T15:16:38.998Z,36.48
2018-03-21T15:19:04.994Z,36.76
2018-03-21T15:21:31.016Z,36.60
2018-03-21T15:23:57.004Z,36.94
2018-03-21T15:26:23.038Z,36.92
2018-03-21T15:28:48.999Z,37.28
2018-03-21T15:31:15.007Z,37.19
2018-03-21T15:33:41.030Z,37.04
2018-03-21T15:36:07.009Z,37.04
2018-03-21T15:38:33.068Z,37.00
2018-03-21T15:40:59.022Z,36.94
2018-03-21T15:43:25.067Z,36.97
2018-03-21T15:45:51.131Z,36.70
2018-03-21T15:48:17.052Z,36.55
2018-03-21T15:50:43.041Z,36.53
2018-03-21T15:53:09.034Z,36.69
2018-03-21T15:55:38.070Z,36.83
2018-03-21T15:58:04.061Z,36.73
2018-03-21T16:00:30.052Z,36.60
2018-03-21T16:02:56.047Z,36.47
2018-03-21T16:05:22.052Z,36.30
2018-03-21T16:07:48.048Z,36.72
2018-03-21T16:10:14.067Z,36.65
2018-03-21T16:12:40.034Z,36.87
2018-03-21T16:15:06.078Z,37.02
2018-03-21T16:17:32.070Z,37.29
2018-03-21T16:19:58.090Z,37.04
2018-03-21T16:22:24.079Z,37.00
2018-03-21T16:24:50.069Z,36.67
2018-03-21T16:27:16.058Z,36.70
2018-03-21T16:29:42.069Z,36.69
2018-03-21T16:32:08.033Z,36.96
2018-03-21T16:34:34.033Z,37.16
2018-03-21T16:37:00.047Z,37.01
2018-03-21T16:39:26.063Z,36.98
2018-03-21T16:41:52.080Z,37.07
2018-03-21T16:44:18.071Z,37.08
2018-03-21T16:46:44.063Z,37.28
2018-03-21T16:49:10.065Z,37.12
2018-03-21T16:51:36.057Z,37.09
2018-03-21T16:54:02.086Z,37.01
2018-03-21T16:56:28.066Z,37.05
2018-03-21T16:58:54.051Z,36.99
2018-03-21T17:01:20.045Z,36.88
2018-03-21T17:03:46.067Z,36.82
2018-03-21T17:06:12.216Z,36.70
2018-03-21T17:08:38.242Z,36.98
2018-03-21T17:11:04.469Z,37.08
2018-03-21T17:13:30.514Z,37.17
2018-03-21T17:15:56.516Z,37.22
2018-03-21T17:18:22.509Z,37.27
2018-03-21T17:20:48.535Z,37.49
2018-03-21T17:23:14.498Z,37.45
2018-03-21T17:25:40.522Z,37.50
2018-03-21T17:28:06.493Z,37.55
2018-03-21T17:30:32.527Z,37.61
2018-03-21T17:32:58.499Z,37.67
2018-03-21T17:35:24.525Z,37.75
2018-03-21T17:37:50.489Z,37.99
2018-03-21T17:40:16.522Z,38.18
2018-03-21T17:42:42.509Z,38.36
2018-03-21T17:45:08.469Z,38.58
2018-03-21T17:47:34.463Z,38.71
2018-03-21T17:50:00.451Z,38.53
2018-03-21T17:52:26.445Z,38.74
2018-03-21T17:54:52.437Z,39.28
2018-03-21T17:57:18.461Z,39.13
2018-03-21T17:59:44.426Z,38.62
2018-03-21T18:02:10.463Z,38.11
2018-03-21T18:04:36.437Z,38.81
2018-03-21T18:07:02.434Z,38.47
2018-03-21T18:09:28.426Z,38.12
2018-03-21T18:11:54.450Z,37.96
2018-03-21T18:14:20.457Z,37.89
2018-03-21T18:16:46.509Z,37.98
2018-03-21T18:19:12.593Z,38.18
2018-03-21T18:21:38.768Z,38.69
2018-03-21T18:24:04.825Z,39.01
2018-03-21T18:26:30.808Z,39.02
2018-03-21T18:28:56.818Z,38.74
2018-03-21T18:31:22.852Z,38.74
2018-03-21T18:33:49.140Z,38.51
2018-03-21T18:36:15.425Z,38.38
2018-03-21T18:38:41.545Z,38.30
2018-03-21T18:41:07.492Z,38.21
2018-03-21T18:43:33.509Z,38.05
2018-03-21T18:45:59.502Z,38.04
2018-03-21T18:48:25.497Z,37.88
2018-03-21T18:50:51.622Z,37.76
2018-03-21T18:53:17.641Z,37.60
2018-03-21T18:55:43.652Z,37.46
2018-03-21T18:58:09.670Z,37.21
2018-03-21T19:00:35.812Z,37.31
2018-03-21T19:03:01.803Z,37.10
2018-03-21T19:05:27.792Z,37.07
2018-03-21T19:07:53.812Z,36.78
2018-03-21T19:10:19.809Z,36.78
2018-03-21T19:12:45.785Z,36.79
2018-03-21T19:15:11.779Z,36.65
2018-03-21T19:17:37.785Z,36.73
2018-03-21T19:20:03.776Z,37.43
2018-03-21T19:22:29.880Z,37.90
2018-03-21T19:24:58.149Z,37.60
2018-03-21T19:27:24.107Z,38.17
2018-03-21T19:29:50.110Z,38.01
2018-03-21T19:32:16.149Z,38.40
2018-03-21T19:34:42.105Z,38.36
2018-03-21T19:37:08.108Z,38.34
2018-03-21T19:39:34.098Z,37.86
2018-03-21T19:42:00.106Z,37.97
2018-03-21T19:44:26.099Z,37.82
2018-03-21T19:46:52.126Z,37.73
2018-03-21T19:49:18.122Z,37.78
2018-03-21T19:51:44.132Z,37.56
2018-03-21T19:54:10.185Z,37.63
2018-03-21T19:56:36.171Z,37.66
2018-03-21T19:59:02.189Z,37.73
2018-03-21T20:01:28.229Z,37.81
2018-03-21T20:03:54.221Z,37.81
2018-03-21T20:06:20.210Z,37.86
2018-03-21T20:08:46.206Z,37.88
2018-03-21T20:11:12.226Z,37.94
2018-03-21T20:13:38.215Z,37.91
2018-03-21T20:16:04.201Z,37.95
2018-03-21T20:18:30.218Z,37.97
2018-03-21T20:20:56.264Z,37.99
2018-03-21T20:23:22.224Z,38.00
2018-03-21T20:25:48.212Z,37.96
2018-03-21T20:28:14.173Z,37.98
2018-03-21T20:30:40.170Z,37.98
2018-03-21T20:33:06.190Z,37.90
2018-03-21T20:35:32.185Z,37.96
2018-03-21T20:37:58.145Z,37.95
2018-03-21T20:40:24.167Z,37.99
2018-03-21T20:42:50.128Z,38.01
2018-03-21T20:45:16.185Z,38.00
2018-03-21T20:47:42.116Z,37.98
2018-03-21T20:50:08.110Z,37.96
2018-03-21T20:52:34.135Z,38.07
2018-03-21T20:55:00.117Z,38.15
2018-03-21T20:57:26.138Z,38.13
2018-03-21T20:59:52.106Z,38.11
2018-03-21T21:02:18.101Z,38.03
2018-03-21T21:04:44.126Z,38.07
2018-03-21T21:07:10.136Z,38.01
2018-03-21T21:09:36.129Z,37.95
2018-03-21T21:12:02.082Z,37.93
2018-03-21T21:14:28.115Z,37.90
2018-03-21T21:16:54.074Z,37.86
2018-03-21T21:19:20.059Z,37.72
2018-03-21T21:21:46.050Z,37.76
2018-03-21T21:24:12.041Z,37.69
2018-03-21T21:29:04.050Z,37.58
2018-03-21T21:31:30.038Z,37.53
2018-03-21T21:33:55.993Z,37.46
2018-03-21T21:36:22.018Z,37.45
2018-03-21T21:38:47.985Z,37.37
2018-03-21T21:41:14.023Z,37.29
2018-03-21T21:43:39.983Z,37.28
2018-03-21T21:46:05.985Z,37.25
2018-03-21T21:48:32.013Z,37.20
2018-03-21T21:50:58.015Z,37.22
2018-03-21T21:53:24.042Z,37.11
2018-03-21T21:55:49.996Z,37.02
2018-03-21T21:58:15.988Z,37.09
2018-03-21T22:00:42.002Z,36.75
2018-03-21T22:03:08.027Z,36.71
2018-03-21T22:05:34.013Z,36.64
2018-03-21T22:07:59.979Z,36.51
2018-03-21T22:10:25.997Z,36.44
2018-03-21T22:12:51.958Z,36.47
2018-03-21T22:15:17.948Z,36.37
2018-03-21T22:17:43.972Z,36.39
2018-03-21T22:20:09.934Z,36.33
2018-03-21T22:22:35.953Z,36.23
2018-03-21T22:25:01.912Z,36.34
2018-03-21T22:27:27.932Z,36.23
2018-03-21T22:29:53.893Z,36.38
2018-03-21T22:32:19.900Z,36.03
2018-03-21T22:34:45.922Z,36.25
2018-03-21T22:37:11.879Z,36.06
2018-03-21T22:39:37.866Z,35.95
2018-03-21T22:42:03.858Z,35.95
2018-03-21T22:44:29.879Z,35.85
2018-03-21T22:46:55.840Z,35.90
2018-03-21T22:49:21.866Z,35.80
2018-03-21T22:51:47.826Z,35.94
2018-03-21T22:54:13.809Z,35.85
2018-03-21T22:56:39.834Z,35.56
2018-03-21T22:59:05.798Z,35.64
2018-03-21T23:01:31.818Z,35.59
2018-03-21T23:03:57.814Z,35.60
2018-03-21T23:06:23.814Z,35.42
2018-03-21T23:08:49.776Z,35.57
2018-03-21T23:11:15.776Z,35.33
2018-03-21T23:13:41.765Z,35.27
2018-03-21T23:16:07.754Z,35.33
2018-03-21T23:18:33.777Z,35.66
2018-03-21T23:20:59.799Z,35.31
2018-03-21T23:23:25.756Z,35.14
2018-03-21T23:25:51.833Z,35.12
2018-03-21T23:28:17.828Z,35.10
2018-03-21T23:30:43.856Z,35.15
2018-03-21T23:33:09.818Z,35.33
2018-03-21T23:35:35.809Z,35.42
2018-03-21T23:38:01.831Z,35.24
2018-03-21T23:40:27.828Z,35.37
2018-03-21T23:42:53.823Z,35.14
2018-03-21T23:45:19.826Z,35.19
2018-03-21T23:47:45.848Z,35.06
2018-03-21T23:50:11.848Z,34.97
2018-03-21T23:52:37.836Z,35.13
2018-03-21T23:55:03.875Z,34.88
2018-03-21T23:57:29.900Z,34.80
2018-03-21T23:59:55.867Z,34.66
